createdAt,value
2019-05-21T00:01:37.546Z,74.29
2019-05-21T00:04:09.512Z,73.68
2019-05-21T00:06:41.862Z,72.94
2019-05-21T00:09:13.832Z,72.45
2019-05-21T00:11:45.866Z,71.78
2019-05-21T00:14:17.814Z,71.32
2019-05-21T00:16:50.076Z,71.30
2019-05-21T00:19:22.032Z,71.12
2019-05-21T00:21:54.398Z,71.39
2019-05-21T00:24:26.375Z,71.71
2019-05-21T00:26:58.510Z,71.19
2019-05-21T00:30:24.320Z,70.02
2019-05-21T00:33:49.696Z,69.56
2019-05-21T00:37:19.930Z,68.94
2019-05-21T00:40:45.564Z,68.55
2019-05-21T00:43:18.980Z,68.11
2019-05-21T00:45:51.620Z,67.98
2019-05-21T00:48:23.562Z,68.48
2019-05-21T00:50:55.540Z,68.95
2019-05-21T00:53:27.632Z,69.60
2019-05-21T00:55:59.990Z,69.70
2019-05-21T00:58:32.074Z,70.26
2019-05-21T01:01:04.146Z,70.71
2019-05-21T01:03:36.114Z,70.72
2019-05-21T01:06:08.130Z,70.65
2019-05-21T01:08:40.492Z,70.61
2019-05-21T01:11:12.454Z,70.15
2019-05-21T01:13:44.425Z,69.86
2019-05-21T01:16:16.408Z,69.85
2019-05-21T01:18:48.373Z,70.20
2019-05-21T01:21:20.354Z,69.97
2019-05-21T01:23:52.308Z,69.63
2019-05-21T01:26:24.283Z,69.48
2019-05-21T01:28:56.221Z,69.20
2019-05-21T01:31:28.189Z,69.09
2019-05-21T01:34:00.408Z,68.94
2019-05-21T01:36:32.373Z,69.06
2019-05-21T01:39:05.483Z,69.24
2019-05-21T01:41:37.860Z,69.54
2019-05-21T01:44:09.812Z,69.36
2019-05-21T01:46:41.762Z,69.24
2019-05-21T01:49:13.784Z,69.17
2019-05-21T01:51:45.750Z,69.28
2019-05-21T01:54:17.780Z,69.45
2019-05-21T01:56:50.288Z,69.58
2019-05-21T01:59:22.277Z,69.48
2019-05-21T02:01:54.277Z,69.51
2019-05-21T02:04:26.226Z,69.71
2019-05-21T02:06:58.314Z,69.85
2019-05-21T02:09:32.196Z,69.84
2019-05-21T02:12:04.159Z,70.17
2019-05-21T02:14:36.134Z,70.35
2019-05-21T02:17:08.077Z,70.42
2019-05-21T02:19:40.302Z,70.51
2019-05-21T02:22:12.333Z,70.60
2019-05-21T02:24:44.264Z,70.71
2019-05-21T02:27:16.246Z,70.91
2019-05-21T02:29:48.174Z,71.02
2019-05-21T02:32:20.141Z,71.15
2019-05-21T02:34:52.087Z,71.29
2019-05-21T02:37:24.085Z,71.18
2019-05-21T02:39:56.109Z,71.18
2019-05-21T02:42:28.292Z,71.09
2019-05-21T02:45:00.238Z,70.83
2019-05-21T02:47:32.183Z,70.75
2019-05-21T02:50:04.140Z,70.53
2019-05-21T02:52:36.155Z,70.54
2019-05-21T02:55:08.560Z,70.62
2019-05-21T02:57:41.937Z,70.65
2019-05-21T03:00:38.411Z,70.87
2019-05-21T03:03:08.452Z,70.88
2019-05-21T03:05:40.620Z,71.25
2019-05-21T03:08:12.552Z,71.36
2019-05-21T03:10:44.493Z,71.50
2019-05-21T03:13:16.474Z,72.03
2019-05-21T03:15:48.430Z,72.00
2019-05-21T03:18:20.798Z,72.03
2019-05-21T03:20:52.768Z,72.37
2019-05-21T03:23:25.004Z,72.58
2019-05-21T03:25:56.957Z,72.43
2019-05-21T03:28:28.901Z,72.38
2019-05-21T03:31:01.273Z,72.37
2019-05-21T03:33:33.257Z,72.05
2019-05-21T03:36:05.213Z,71.68
2019-05-21T03:38:37.198Z,70.87
2019-05-21T03:41:09.168Z,70.23
2019-05-21T03:43:41.159Z,70.00
2019-05-21T03:46:13.119Z,69.92
2019-05-21T03:48:45.075Z,69.71
2019-05-21T03:51:17.116Z,69.44
2019-05-21T03:53:49.126Z,69.08
2019-05-21T03:56:21.219Z,68.63
2019-05-21T03:58:53.189Z,68.28
2019-05-21T04:01:25.200Z,67.89
2019-05-21T04:03:57.205Z,67.49
2019-05-21T04:06:29.167Z,67.13
2019-05-21T04:09:01.256Z,66.69
2019-05-21T04:11:33.229Z,66.22
2019-05-21T04:14:05.256Z,65.81
2019-05-21T04:16:45.291Z,65.33
2019-05-21T04:19:21.072Z,64.64
2019-05-21T04:21:56.088Z,64.08
2019-05-21T04:24:28.074Z,63.39
2019-05-21T04:27:00.309Z,62.32
2019-05-21T04:29:32.653Z,60.69
2019-05-21T04:32:04.603Z,59.68
2019-05-21T04:34:36.634Z,58.81
2019-05-21T04:37:11.361Z,58.15
2019-05-21T04:39:42.324Z,57.36
2019-05-21T04:42:14.313Z,57.06
2019-05-21T04:44:46.351Z,56.69
2019-05-21T04:47:18.334Z,56.54
2019-05-21T04:49:50.270Z,56.42
2019-05-21T04:52:22.258Z,56.17
2019-05-21T04:54:54.224Z,56.11
2019-05-21T04:57:26.168Z,55.74
2019-05-21T04:59:58.121Z,55.16
2019-05-21T05:02:30.357Z,54.46
2019-05-21T05:05:02.328Z,53.23
2019-05-21T05:07:34.266Z,52.55
2019-05-21T05:10:07.108Z,51.35
2019-05-21T05:12:39.074Z,50.86
2019-05-21T05:15:11.318Z,50.48
2019-05-21T05:17:43.314Z,50.08
2019-05-21T05:20:15.404Z,49.95
2019-05-21T05:22:47.463Z,49.76
2019-05-21T05:25:19.900Z,49.57
2019-05-21T05:27:51.964Z,47.18
2019-05-21T05:30:23.966Z,44.44
2019-05-21T05:32:55.951Z,44.30
2019-05-21T05:35:27.949Z,44.21
2019-05-21T05:40:30.550Z,43.40
2019-05-21T05:43:02.507Z,43.33
2019-05-21T05:45:34.476Z,42.63
2019-05-21T05:48:06.549Z,41.58
2019-05-21T05:50:40.572Z,40.05
2019-05-21T05:53:13.483Z,38.23
2019-05-21T05:55:45.545Z,37.65
2019-05-21T05:58:17.550Z,37.91
2019-05-21T06:00:50.025Z,38.37
2019-05-21T06:03:22.127Z,38.45
2019-05-21T06:05:54.316Z,38.63
2019-05-21T06:08:26.320Z,38.94
2019-05-21T06:10:58.329Z,39.17
2019-05-21T06:13:30.293Z,39.13
2019-05-21T06:16:02.304Z,39.26
2019-05-21T06:18:35.654Z,39.64
2019-05-21T06:21:07.967Z,40.14
2019-05-21T06:23:39.928Z,40.20
2019-05-21T06:26:11.893Z,39.96
2019-05-21T06:28:43.923Z,40.06
2019-05-21T06:31:15.917Z,39.98
2019-05-21T06:33:47.924Z,40.35
2019-05-21T06:36:20.245Z,39.83
2019-05-21T06:38:52.221Z,39.91
2019-05-21T06:41:24.254Z,39.93
2019-05-21T06:44:02.215Z,39.54
2019-05-21T06:46:34.203Z,39.00
2019-05-21T06:49:06.144Z,38.50
2019-05-21T06:51:38.160Z,38.04
2019-05-21T06:54:10.174Z,37.91
2019-05-21T06:56:42.218Z,38.10
2019-05-21T06:59:14.162Z,38.27
2019-05-21T07:01:46.149Z,38.45
2019-05-21T07:04:18.144Z,38.70
2019-05-21T07:06:50.425Z,38.82
2019-05-21T07:09:22.370Z,39.19
2019-05-21T07:11:54.348Z,39.42
2019-05-21T07:14:26.341Z,39.55
2019-05-21T07:16:58.311Z,39.75
2019-05-21T07:19:30.259Z,39.89
2019-05-21T07:22:11.996Z,39.70
2019-05-21T07:24:35.987Z,40.10
2019-05-21T07:27:07.986Z,40.53
2019-05-21T07:29:40.206Z,41.19
2019-05-21T07:32:12.182Z,41.79
2019-05-21T07:34:44.339Z,42.43
2019-05-21T07:37:16.580Z,42.88
2019-05-21T07:39:48.539Z,43.28
2019-05-21T07:42:20.526Z,43.58
2019-05-21T07:44:52.622Z,43.76
2019-05-21T07:47:24.659Z,43.90
2019-05-21T07:49:56.595Z,43.87
2019-05-21T07:52:28.627Z,43.62
2019-05-21T07:55:00.849Z,43.40
2019-05-21T07:57:32.827Z,42.89
2019-05-21T08:00:05.453Z,42.69
2019-05-21T08:02:37.489Z,42.45
2019-05-21T08:05:09.555Z,41.77
2019-05-21T08:07:41.510Z,40.81
2019-05-21T08:10:13.594Z,39.36
2019-05-21T08:12:45.590Z,38.46
2019-05-21T08:15:17.527Z,37.21
2019-05-21T08:17:49.566Z,36.59
2019-05-21T08:20:23.544Z,35.66
2019-05-21T08:22:55.544Z,34.70
2019-05-21T08:25:27.511Z,34.61
2019-05-21T08:27:59.501Z,34.10
2019-05-21T08:30:31.473Z,33.52
2019-05-21T08:33:03.520Z,33.26
2019-05-21T08:35:38.324Z,33.19
2019-05-21T08:38:10.317Z,32.56
2019-05-21T08:40:42.233Z,32.50
2019-05-21T08:43:14.252Z,32.54
2019-05-21T08:45:46.339Z,32.61
2019-05-21T08:48:18.316Z,32.07
2019-05-21T08:50:50.698Z,31.67
2019-05-21T08:53:22.751Z,31.33
2019-05-21T08:55:54.732Z,30.65
2019-05-21T08:58:26.717Z,30.56
2019-05-21T09:00:58.686Z,30.13
2019-05-21T09:03:30.623Z,29.30
2019-05-21T09:06:02.613Z,28.39
2019-05-21T09:08:34.609Z,27.47
2019-05-21T09:11:06.578Z,26.16
2019-05-21T09:13:38.576Z,25.44
2019-05-21T09:16:10.951Z,24.12
2019-05-21T09:18:42.932Z,23.51
2019-05-21T09:21:14.976Z,23.94
2019-05-21T09:23:46.910Z,24.07
2019-05-21T09:26:18.954Z,23.99
2019-05-21T09:28:51.546Z,24.47
2019-05-21T09:31:23.527Z,25.07
2019-05-21T09:33:55.510Z,25.41
2019-05-21T09:36:28.161Z,26.19
2019-05-21T09:39:00.492Z,26.50
2019-05-21T09:41:32.494Z,26.81
2019-05-21T09:44:04.592Z,26.78
2019-05-21T09:46:36.707Z,26.43
2019-05-21T09:49:08.740Z,26.31
2019-05-21T09:51:40.697Z,25.84
2019-05-21T09:54:12.701Z,25.17
2019-05-21T09:56:44.678Z,23.71
2019-05-21T09:59:35.530Z,22.78
2019-05-21T10:02:17.103Z,20.79
2019-05-21T10:04:49.160Z,19.93
2019-05-21T10:07:38.221Z,19.42
2019-05-21T10:09:54.982Z,18.95
2019-05-21T10:12:26.932Z,18.55
2019-05-21T10:14:58.973Z,18.22
2019-05-21T10:17:30.991Z,17.51
2019-05-21T10:20:03.045Z,16.52
2019-05-21T10:22:35.050Z,14.76
2019-05-21T10:25:07.711Z,14.11
2019-05-21T10:27:39.749Z,13.06
2019-05-21T10:30:13.295Z,11.11
2019-05-21T10:32:45.280Z,8.89
2019-05-21T10:35:17.398Z,7.52
2019-05-21T10:37:54.862Z,7.66
2019-05-21T10:40:23.368Z,6.35
2019-05-21T10:42:55.350Z,6.81
2019-05-21T10:49:27.464Z,6.71
2019-05-21T10:51:59.434Z,7.42
2019-05-21T10:54:31.441Z,8.94
2019-05-21T10:57:03.414Z,10.03
2019-05-21T10:59:35.402Z,10.31
2019-05-21T11:02:23.443Z,9.38
2019-05-21T11:05:05.598Z,7.82
2019-05-21T11:07:37.586Z,7.81
2019-05-21T11:10:10.335Z,8.30
2019-05-21T11:12:42.390Z,9.03
2019-05-21T11:15:14.907Z,9.84
2019-05-21T11:17:59.145Z,10.54
2019-05-21T11:20:21.499Z,11.66
2019-05-21T11:22:53.539Z,13.30
2019-05-21T11:25:25.506Z,14.76
2019-05-21T11:27:57.501Z,15.86
2019-05-21T11:30:29.536Z,16.35
2019-05-21T11:33:01.497Z,16.98
2019-05-21T11:35:35.968Z,18.34
2019-05-21T11:38:07.129Z,20.13
2019-05-21T11:40:39.069Z,21.77
2019-05-21T11:43:11.184Z,22.21
2019-05-21T11:45:43.676Z,22.90
2019-05-21T11:48:15.748Z,23.52
2019-05-21T11:50:47.708Z,24.22
2019-05-21T11:53:19.654Z,24.67
2019-05-21T11:55:51.610Z,25.34
2019-05-21T11:58:23.652Z,25.79
2019-05-21T12:00:55.700Z,26.26
2019-05-21T12:03:27.679Z,26.50
2019-05-21T12:05:59.711Z,27.57
2019-05-21T12:08:31.670Z,29.03
2019-05-21T12:11:03.630Z,29.42
2019-05-21T12:13:35.647Z,29.17
2019-05-21T12:16:07.626Z,28.84
2019-05-21T12:18:40.275Z,28.22
2019-05-21T12:21:12.330Z,27.85
2019-05-21T12:23:44.365Z,27.34
2019-05-21T12:26:16.356Z,26.95
2019-05-21T12:28:48.374Z,26.37
2019-05-21T12:31:20.631Z,26.67
2019-05-21T12:33:52.694Z,26.90
2019-05-21T12:36:24.806Z,27.59
2019-05-21T12:39:11.638Z,28.19
2019-05-21T12:41:30.855Z,28.79
2019-05-21T12:44:02.855Z,30.15
2019-05-21T12:46:34.858Z,31.43
2019-05-21T12:49:06.836Z,32.82
2019-05-21T12:51:38.914Z,34.60
2019-05-21T12:54:10.896Z,35.70
2019-05-21T12:56:42.876Z,36.37
2019-05-21T12:59:14.893Z,37.24
2019-05-21T13:01:46.846Z,37.66
2019-05-21T13:04:18.864Z,37.73
2019-05-21T13:06:51.264Z,38.46
2019-05-21T13:09:32.167Z,39.15
2019-05-21T13:11:57.043Z,39.96
2019-05-21T13:14:29.011Z,40.66
2019-05-21T13:17:01.256Z,40.80
2019-05-21T13:19:33.230Z,41.34
2019-05-21T13:22:05.393Z,42.06
2019-05-21T13:24:37.393Z,43.27
2019-05-21T13:27:09.444Z,43.78
2019-05-21T13:29:41.398Z,44.39
2019-05-21T13:32:13.448Z,45.04
2019-05-21T13:34:45.763Z,45.10
2019-05-21T13:37:17.752Z,44.97
2019-05-21T13:39:50.684Z,44.90
2019-05-21T13:42:23.025Z,44.84
2019-05-21T13:44:55.170Z,44.07
2019-05-21T13:47:27.175Z,43.87
2019-05-21T13:49:59.366Z,43.59
2019-05-21T13:52:31.478Z,42.99
2019-05-21T13:55:03.525Z,42.37
2019-05-21T13:57:35.582Z,42.38
2019-05-21T14:00:13.702Z,42.23
2019-05-21T14:02:46.044Z,41.84
2019-05-21T14:05:18.172Z,41.61
2019-05-21T14:07:50.156Z,41.19
2019-05-21T14:10:22.184Z,40.24
2019-05-21T14:12:54.206Z,38.66
2019-05-21T14:15:26.182Z,37.29
2019-05-21T14:17:58.125Z,36.59
2019-05-21T14:20:30.371Z,35.91
2019-05-21T14:23:02.396Z,35.40
2019-05-21T14:25:34.603Z,35.25
2019-05-21T14:28:06.774Z,35.15
2019-05-21T14:30:38.830Z,34.69
2019-05-21T14:33:11.091Z,34.14
2019-05-21T14:35:43.094Z,34.05
2019-05-21T14:38:15.061Z,34.09
2019-05-21T14:40:47.060Z,34.16
2019-05-21T14:43:19.105Z,34.09
2019-05-21T14:45:51.282Z,34.57
2019-05-21T14:48:23.242Z,34.35
2019-05-21T14:50:55.293Z,34.63
2019-05-21T14:53:27.352Z,35.00
2019-05-21T14:55:59.293Z,35.39
2019-05-21T14:58:31.427Z,35.19
2019-05-21T15:01:03.554Z,36.06
2019-05-21T15:03:35.626Z,37.02
2019-05-21T15:06:07.584Z,37.88
2019-05-21T15:08:40.191Z,38.92
2019-05-21T15:11:12.216Z,39.61
2019-05-21T15:13:44.183Z,40.59
2019-05-21T15:16:16.148Z,41.19
2019-05-21T15:18:48.338Z,41.62
2019-05-21T15:21:26.052Z,41.88
2019-05-21T15:23:58.128Z,42.34
2019-05-21T15:26:30.338Z,42.76
2019-05-21T15:29:02.441Z,43.45
2019-05-21T15:31:34.402Z,43.98
2019-05-21T15:34:06.464Z,44.51
2019-05-21T15:36:38.425Z,44.67
2019-05-21T15:39:10.755Z,44.95
2019-05-21T15:41:42.678Z,45.10
2019-05-21T15:44:14.854Z,45.41
2019-05-21T15:46:50.138Z,45.52
2019-05-21T15:49:34.963Z,46.17
2019-05-21T15:51:54.667Z,46.62
2019-05-21T15:54:26.931Z,46.64
2019-05-21T15:56:58.868Z,47.06
2019-05-21T15:59:31.282Z,47.08
2019-05-21T16:02:03.546Z,47.46
2019-05-21T16:04:35.613Z,47.60
2019-05-21T16:07:07.548Z,47.97
2019-05-21T16:09:39.872Z,48.78
2019-05-21T16:12:11.998Z,48.89
2019-05-21T16:14:45.933Z,49.58
2019-05-21T16:17:18.485Z,50.38
2019-05-21T16:19:50.804Z,51.46
2019-05-21T16:22:24.651Z,52.44
2019-05-21T16:24:56.703Z,53.35
2019-05-21T16:27:28.705Z,54.25
2019-05-21T16:30:01.467Z,53.72
2019-05-21T16:32:33.625Z,53.99
2019-05-21T16:35:05.802Z,54.08
2019-05-21T16:37:37.965Z,54.84
2019-05-21T16:40:10.975Z,55.51
2019-05-21T16:42:44.930Z,56.73
2019-05-21T16:45:17.263Z,58.64
2019-05-21T16:47:49.488Z,58.76
2019-05-21T16:50:21.576Z,60.04
2019-05-21T16:52:53.641Z,60.26
2019-05-21T16:55:25.697Z,60.89
2019-05-21T16:57:57.665Z,62.39
2019-05-21T17:00:30.261Z,61.85
2019-05-21T17:03:03.394Z,61.63
2019-05-21T17:05:35.395Z,61.07
2019-05-21T17:08:07.440Z,61.82
2019-05-21T17:10:39.416Z,61.63
2019-05-21T17:13:11.379Z,63.19
2019-05-21T17:15:43.472Z,64.30
2019-05-21T17:18:15.487Z,64.66
2019-05-21T17:20:47.547Z,65.40
2019-05-21T17:23:20.018Z,65.17
2019-05-21T17:25:52.126Z,66.04
2019-05-21T17:28:24.121Z,67.42
2019-05-21T17:30:56.112Z,67.80
2019-05-21T17:33:28.091Z,68.21
2019-05-21T17:36:00.079Z,68.81
2019-05-21T17:38:32.066Z,69.25
2019-05-21T17:41:03.999Z,69.52
2019-05-21T17:43:36.054Z,70.56
2019-05-21T17:46:08.033Z,71.05
2019-05-21T17:48:40.618Z,71.96
2019-05-21T17:51:12.579Z,73.27
2019-05-21T17:53:44.586Z,73.02
2019-05-21T17:56:16.559Z,73.35
2019-05-21T17:58:48.649Z,73.92
2019-05-21T18:01:21.436Z,74.28
2019-05-21T18:03:54.119Z,74.32
2019-05-21T18:06:26.502Z,74.43
2019-05-21T18:08:58.670Z,75.11
2019-05-21T18:11:30.723Z,75.82
2019-05-21T18:14:02.991Z,76.43
2019-05-21T18:16:35.389Z,76.93
2019-05-21T18:19:08.646Z,77.08
2019-05-21T18:21:41.453Z,77.77
2019-05-21T18:24:13.484Z,78.78
2019-05-21T18:26:45.792Z,80.00
2019-05-21T18:29:17.779Z,81.51
2019-05-21T18:31:50.051Z,82.23
2019-05-21T18:34:22.167Z,83.30
2019-05-21T18:36:54.526Z,84.86
2019-05-21T18:39:26.558Z,85.84
2019-05-21T18:41:58.525Z,86.93
2019-05-21T18:44:31.004Z,87.76
2019-05-21T18:47:03.029Z,87.66
2019-05-21T18:49:35.081Z,86.98
2019-05-21T18:52:07.114Z,87.68
2019-05-21T18:54:39.096Z,87.69
2019-05-21T18:57:11.280Z,88.38
2019-05-21T18:59:43.739Z,88.26
2019-05-21T19:02:16.305Z,88.94
2019-05-21T19:04:48.376Z,89.35
2019-05-21T19:07:20.899Z,90.60
2019-05-21T19:09:52.871Z,91.63
2019-05-21T19:12:36.960Z,92.87
2019-05-21T19:14:58.709Z,93.62
2019-05-21T19:17:35.507Z,93.98
2019-05-21T19:20:06.780Z,94.79
2019-05-21T19:22:38.822Z,94.60
2019-05-21T19:25:10.909Z,94.89
2019-05-21T19:27:43.046Z,94.47
2019-05-21T19:30:15.508Z,94.72
2019-05-21T19:32:47.662Z,94.80
2019-05-21T19:35:20.141Z,94.72
2019-05-21T19:37:52.133Z,94.74
2019-05-21T19:40:24.086Z,94.68
2019-05-21T19:42:56.202Z,94.45
2019-05-21T19:45:31.311Z,94.63
2019-05-21T19:48:01.992Z,94.82
2019-05-21T19:50:34.331Z,94.92
2019-05-21T19:53:06.304Z,94.94
2019-05-21T19:55:38.993Z,95.21
2019-05-21T19:58:11.071Z,95.46
2019-05-21T20:00:49.694Z,95.36
2019-05-21T20:03:22.554Z,95.56
2019-05-21T20:05:55.419Z,95.81
2019-05-21T20:08:28.577Z,96.12
2019-05-21T20:11:01.054Z,96.30
2019-05-21T20:13:33.106Z,96.41
2019-05-21T20:16:06.191Z,96.87
2019-05-21T20:18:38.151Z,96.97
2019-05-21T20:21:11.133Z,96.75
2019-05-21T20:23:44.197Z,96.25
2019-05-21T20:26:19.655Z,95.63
2019-05-21T20:28:52.023Z,95.46
2019-05-21T20:31:25.248Z,95.71
2019-05-21T20:33:57.298Z,95.74
2019-05-21T20:36:29.974Z,95.40
2019-05-21T20:39:02.373Z,95.51
2019-05-21T20:41:34.378Z,95.26
2019-05-21T20:44:08.590Z,95.03
2019-05-21T20:46:41.552Z,94.94
2019-05-21T20:49:13.544Z,95.18
2019-05-21T20:51:45.978Z,95.43
2019-05-21T20:54:19.620Z,95.58
2019-05-21T20:56:52.016Z,95.56
2019-05-21T20:59:23.981Z,95.59
2019-05-21T21:01:57.305Z,95.57
2019-05-21T21:04:30.687Z,95.43
2019-05-21T21:07:03.389Z,95.30
2019-05-21T21:09:36.392Z,95.17
2019-05-21T21:12:09.762Z,95.03
2019-05-21T21:14:43.504Z,94.61
2019-05-21T21:17:17.191Z,94.46
2019-05-21T21:19:49.156Z,94.13
2019-05-21T21:22:21.270Z,94.02
2019-05-21T21:24:53.828Z,94.01
2019-05-21T21:27:26.278Z,94.11
2019-05-21T21:29:58.229Z,94.04
2019-05-21T21:32:30.903Z,94.11
2019-05-21T21:35:03.281Z,93.84
2019-05-21T21:37:35.408Z,93.87
2019-05-21T21:40:10.290Z,93.98
2019-05-21T21:42:42.794Z,94.29
2019-05-21T21:45:15.777Z,94.22
2019-05-21T21:47:47.718Z,94.07
2019-05-21T21:50:20.113Z,94.06
2019-05-21T21:52:52.065Z,93.82
2019-05-21T21:55:24.180Z,93.74
2019-05-21T21:57:56.157Z,93.64
2019-05-21T22:01:29.152Z,93.64
2019-05-21T22:04:04.688Z,93.59
2019-05-21T22:06:39.348Z,95.09
2019-05-21T22:09:24.610Z,96.49
2019-05-21T22:11:57.436Z,97.44
2019-05-21T22:14:30.099Z,98.26
2019-05-21T22:17:02.260Z,99.13
2019-05-21T22:19:34.880Z,100.00
2019-05-21T22:22:07.485Z,100.00
2019-05-21T22:24:39.744Z,100.00
2019-05-21T22:27:11.716Z,100.00
2019-05-21T22:29:43.867Z,100.00
2019-05-21T22:32:16.822Z,100.00
2019-05-21T22:34:48.877Z,100.00
2019-05-21T22:37:23.719Z,100.00
2019-05-21T22:39:55.758Z,100.00
2019-05-21T22:42:28.304Z,100.00
2019-05-21T22:45:08.068Z,100.00
2019-05-21T22:47:35.500Z,100.00
2019-05-21T22:50:09.274Z,100.00
2019-05-21T22:52:41.235Z,100.00
2019-05-21T22:55:13.412Z,100.00
2019-05-21T22:57:45.533Z,100.00
2019-05-21T23:00:17.900Z,100.00
2019-05-21T23:02:49.890Z,100.00
2019-05-21T23:05:23.117Z,100.00
2019-05-21T23:07:55.671Z,100.00
2019-05-21T23:10:28.061Z,100.00
2019-05-21T23:13:00.746Z,100.00
2019-05-21T23:15:32.710Z,100.00
2019-05-21T23:18:05.346Z,100.00
2019-05-21T23:20:38.221Z,100.00
2019-05-21T23:23:10.345Z,100.00
2019-05-21T23:25:43.662Z,100.00
2019-05-21T23:28:16.107Z,100.00
2019-05-21T23:30:48.862Z,100.00
2019-05-21T23:33:21.577Z,100.00
2019-05-21T23:35:53.837Z,100.00
2019-05-21T23:38:26.275Z,100.00
2019-05-21T23:40:58.285Z,100.00
2019-05-21T23:43:31.016Z,100.00
2019-05-21T23:46:03.090Z,100.00
2019-05-21T23:48:35.631Z,100.00
2019-05-21T23:51:07.608Z,100.00
2019-05-21T23:53:40.813Z,100.00
2019-05-21T23:56:13.163Z,100.00
2019-05-21T23:58:47.976Z,100.00
